createdAt,value
2023-05-05T00:00:41.117Z,10.87
2023-05-05T00:03:08.025Z,10.83
2023-05-05T00:05:34.729Z,10.77
2023-05-05T00:08:01.744Z,10.73
2023-05-05T00:10:28.416Z,10.66
2023-05-05T00:12:55.136Z,10.62
2023-05-05T00:15:22.050Z,10.69
2023-05-05T00:17:48.930Z,10.67
2023-05-05T00:20:15.915Z,10.56
2023-05-05T00:22:42.532Z,10.57
2023-05-05T00:25:09.488Z,10.59
2023-05-05T00:27:37.002Z,10.68
2023-05-05T00:30:05.991Z,10.48
2023-05-05T00:32:32.996Z,10.48
2023-05-05T00:35:00.015Z,10.58
2023-05-05T00:37:27.173Z,10.47
2023-05-05T00:39:53.945Z,10.56
2023-05-05T00:42:20.714Z,10.56
2023-05-05T00:44:47.893Z,10.39
2023-05-05T00:47:16.846Z,10.35
2023-05-05T00:49:43.705Z,10.41
2023-05-05T00:52:11.604Z,10.33
2023-05-05T00:54:41.727Z,10.36
2023-05-05T00:57:11.113Z,10.28
2023-05-05T00:59:41.628Z,10.22
2023-05-05T01:02:15.994Z,10.29
2023-05-05T01:04:44.168Z,10.21
2023-05-05T01:07:13.631Z,10.23
2023-05-05T01:10:20.971Z,10.11
2023-05-05T01:13:03.880Z,10.21
2023-05-05T01:15:35.215Z,10.30
2023-05-05T01:18:32.664Z,10.20
2023-05-05T01:21:07.470Z,10.12
2023-05-05T01:23:46.372Z,10.05
2023-05-05T01:26:34.977Z,9.92
2023-05-05T01:29:07.882Z,9.93
2023-05-05T01:31:40.539Z,9.92
2023-05-05T01:34:09.968Z,9.86
2023-05-05T01:36:42.404Z,9.98
2023-05-05T01:39:14.886Z,9.86
2023-05-05T01:41:51.920Z,9.92
2023-05-05T01:44:20.371Z,9.75
2023-05-05T01:46:50.472Z,9.72
2023-05-05T01:49:17.712Z,9.80
2023-05-05T01:51:49.024Z,9.73
2023-05-05T01:54:18.740Z,9.70
2023-05-05T01:56:46.632Z,9.74
2023-05-05T01:59:14.019Z,9.63
2023-05-05T02:01:41.920Z,9.73
2023-05-05T02:04:10.079Z,9.75
2023-05-05T02:06:39.934Z,9.75
2023-05-05T02:09:08.845Z,9.65
2023-05-05T02:11:36.490Z,9.69
2023-05-05T02:14:04.130Z,9.80
2023-05-05T02:16:32.369Z,9.59
2023-05-05T02:19:04.711Z,9.55
2023-05-05T02:21:32.149Z,9.41
2023-05-05T02:23:59.207Z,9.44
2023-05-05T02:26:26.859Z,9.40
2023-05-05T02:29:17.756Z,9.57
2023-05-05T02:31:49.389Z,9.45
2023-05-05T02:34:26.222Z,9.35
2023-05-05T02:36:58.578Z,9.35
2023-05-05T02:39:38.661Z,9.28
2023-05-05T02:42:06.000Z,9.21
2023-05-05T02:44:33.821Z,9.18
2023-05-05T02:47:03.938Z,9.10
2023-05-05T02:49:30.691Z,9.18
2023-05-05T02:51:58.126Z,9.09
2023-05-05T02:54:25.318Z,9.16
2023-05-05T02:56:54.076Z,9.06
2023-05-05T02:59:49.622Z,9.07
2023-05-05T03:02:29.022Z,9.08
2023-05-05T03:05:00.922Z,8.93
2023-05-05T03:07:33.891Z,8.91
2023-05-05T03:10:10.316Z,8.89
2023-05-05T03:12:56.227Z,8.87
2023-05-05T03:15:28.152Z,8.80
2023-05-05T03:17:56.959Z,8.77
2023-05-05T03:20:24.609Z,8.76
2023-05-05T03:22:56.329Z,8.69
2023-05-05T03:25:23.120Z,8.76
2023-05-05T03:27:49.755Z,8.66
2023-05-05T03:30:16.556Z,8.67
2023-05-05T03:32:43.219Z,8.59
2023-05-05T03:35:10.208Z,8.63
2023-05-05T03:37:36.876Z,8.60
2023-05-05T03:40:04.010Z,8.70
2023-05-05T03:42:33.761Z,8.64
2023-05-05T03:45:00.525Z,8.64
2023-05-05T03:47:27.259Z,8.55
2023-05-05T03:49:53.848Z,8.71
2023-05-05T03:52:20.934Z,8.67
2023-05-05T03:54:47.555Z,8.65
2023-05-05T03:57:14.250Z,8.75
2023-05-05T03:59:40.948Z,8.68
2023-05-05T04:02:08.004Z,8.62
2023-05-05T04:04:34.957Z,8.62
2023-05-05T04:07:01.821Z,8.61
2023-05-05T04:09:28.482Z,8.60
2023-05-05T04:11:55.171Z,8.59
2023-05-05T04:14:22.381Z,8.67
2023-05-05T04:16:51.536Z,8.68
2023-05-05T04:19:24.026Z,8.79
2023-05-05T04:21:53.763Z,8.76
2023-05-05T04:24:24.703Z,8.90
2023-05-05T04:26:52.158Z,8.98
2023-05-05T04:29:18.855Z,9.18
2023-05-05T04:31:45.756Z,9.11
2023-05-05T04:34:12.539Z,9.03
2023-05-05T04:36:39.315Z,9.12
2023-05-05T04:39:07.198Z,9.13
2023-05-05T04:41:34.040Z,9.25
2023-05-05T04:44:00.693Z,9.30
2023-05-05T04:46:29.656Z,9.40
2023-05-05T04:49:01.299Z,9.50
2023-05-05T04:51:27.962Z,9.55
2023-05-05T04:53:54.664Z,9.48
2023-05-05T04:56:21.494Z,9.68
2023-05-05T04:58:48.109Z,9.74
2023-05-05T05:01:14.755Z,9.85
2023-05-05T05:03:42.151Z,10.14
2023-05-05T05:06:09.210Z,10.19
2023-05-05T05:08:35.794Z,10.27
2023-05-05T05:11:02.465Z,10.45
2023-05-05T05:13:29.163Z,10.48
2023-05-05T05:15:57.468Z,10.73
2023-05-05T05:18:24.398Z,10.62
2023-05-05T05:20:51.331Z,11.01
2023-05-05T05:23:20.958Z,11.07
2023-05-05T05:25:48.330Z,11.22
2023-05-05T05:28:17.557Z,11.48
2023-05-05T05:30:44.578Z,11.35
2023-05-05T05:33:11.485Z,11.58
2023-05-05T05:35:44.124Z,11.70
2023-05-05T05:38:10.881Z,11.38
2023-05-05T05:40:38.090Z,11.52
2023-05-05T05:43:04.893Z,11.75
2023-05-05T05:45:31.866Z,11.90
2023-05-05T05:47:58.768Z,11.77
2023-05-05T05:50:28.663Z,11.90
2023-05-05T05:52:58.693Z,12.13
2023-05-05T05:55:25.448Z,12.26
2023-05-05T05:57:52.175Z,12.66
2023-05-05T06:00:19.303Z,12.58
2023-05-05T06:02:46.084Z,12.74
2023-05-05T06:05:15.751Z,12.90
2023-05-05T06:07:42.410Z,13.30
2023-05-05T06:10:25.586Z,13.58
2023-05-05T06:12:52.933Z,13.52
2023-05-05T06:15:19.714Z,13.80
2023-05-05T06:17:48.828Z,13.41
2023-05-05T06:20:15.690Z,13.78
2023-05-05T06:22:42.473Z,13.82
2023-05-05T06:25:09.379Z,13.67
2023-05-05T06:27:36.059Z,13.48
2023-05-05T06:30:02.763Z,13.52
2023-05-05T06:32:29.440Z,13.65
2023-05-05T06:35:01.107Z,13.62
2023-05-05T06:37:27.799Z,13.30
2023-05-05T06:39:54.424Z,13.75
2023-05-05T06:42:21.227Z,13.53
2023-05-05T06:44:47.965Z,13.64
2023-05-05T06:47:14.666Z,13.90
2023-05-05T06:49:41.283Z,14.22
2023-05-05T06:52:08.446Z,14.27
2023-05-05T06:54:35.150Z,14.13
2023-05-05T06:57:01.982Z,14.17
2023-05-05T06:59:28.743Z,14.23
2023-05-05T07:01:56.593Z,14.21
2023-05-05T07:04:32.690Z,14.43
2023-05-05T07:06:59.307Z,14.58
2023-05-05T07:09:26.012Z,14.96
2023-05-05T07:11:52.681Z,15.12
2023-05-05T07:14:20.099Z,15.20
2023-05-05T07:16:47.731Z,15.25
2023-05-05T07:19:14.419Z,15.31
2023-05-05T07:21:41.218Z,15.60
2023-05-05T07:24:08.024Z,15.70
2023-05-05T07:26:35.063Z,15.80
2023-05-05T07:29:02.685Z,15.86
2023-05-05T07:31:29.358Z,15.93
2023-05-05T07:33:56.459Z,15.77
2023-05-05T07:36:23.294Z,15.69
2023-05-05T07:38:50.034Z,15.73
2023-05-05T07:41:20.148Z,15.81
2023-05-05T07:43:46.924Z,16.18
2023-05-05T07:46:14.133Z,16.31
2023-05-05T07:48:41.851Z,16.01
2023-05-05T07:51:09.378Z,16.29
2023-05-05T07:53:36.339Z,16.64
2023-05-05T07:56:03.387Z,16.69
2023-05-05T07:58:30.088Z,16.32
2023-05-05T08:01:04.318Z,16.70
2023-05-05T08:03:31.359Z,16.91
2023-05-05T08:09:42.112Z,16.78
2023-05-05T08:12:09.760Z,16.97
2023-05-05T08:14:49.415Z,16.69
2023-05-05T08:17:17.485Z,16.91
2023-05-05T08:19:44.419Z,16.94
2023-05-05T08:22:14.924Z,17.14
2023-05-05T08:24:44.524Z,17.16
2023-05-05T08:27:14.369Z,17.50
2023-05-05T08:29:40.942Z,17.34
2023-05-05T08:32:10.630Z,17.60
2023-05-05T08:34:40.462Z,17.72
2023-05-05T08:37:10.088Z,17.75
2023-05-05T08:39:36.788Z,17.77
2023-05-05T08:42:03.513Z,18.15
2023-05-05T08:44:30.226Z,17.91
2023-05-05T08:46:57.997Z,18.22
2023-05-05T08:49:25.952Z,18.07
2023-05-05T08:51:54.257Z,18.03
2023-05-05T08:54:27.807Z,18.29
2023-05-05T08:56:57.658Z,18.49
2023-05-05T08:59:25.693Z,18.44
2023-05-05T09:01:54.208Z,18.81
2023-05-05T09:04:21.181Z,18.94
2023-05-05T09:06:47.976Z,18.79
2023-05-05T09:09:14.898Z,19.14
2023-05-05T09:11:42.346Z,19.27
2023-05-05T09:14:09.379Z,18.91
2023-05-05T09:16:36.060Z,18.97
2023-05-05T09:19:06.047Z,19.13
2023-05-05T09:21:33.081Z,19.18
2023-05-05T09:24:10.923Z,19.27
2023-05-05T09:26:47.752Z,19.32
2023-05-05T09:29:22.020Z,19.10
2023-05-05T09:32:18.334Z,19.44
2023-05-05T09:34:58.084Z,19.64
2023-05-05T09:37:31.569Z,20.09
2023-05-05T09:40:01.283Z,19.61
2023-05-05T09:42:28.272Z,19.97
2023-05-05T09:44:55.408Z,20.15
2023-05-05T09:47:34.945Z,20.15
2023-05-05T09:50:02.256Z,20.06
2023-05-05T09:52:29.118Z,20.29
2023-05-05T09:54:57.168Z,20.32
2023-05-05T09:57:28.900Z,20.28
2023-05-05T09:59:57.561Z,20.23
2023-05-05T10:02:34.926Z,20.19
2023-05-05T10:05:13.914Z,19.65
2023-05-05T10:07:45.169Z,19.85
2023-05-05T10:10:17.720Z,19.57
2023-05-05T10:12:47.624Z,19.51
2023-05-05T10:15:23.108Z,20.07
2023-05-05T10:18:05.828Z,20.48
2023-05-05T10:20:36.762Z,20.41
2023-05-05T10:23:08.343Z,20.43
2023-05-05T10:25:44.820Z,20.77
2023-05-05T10:28:22.575Z,20.77
2023-05-05T10:30:56.904Z,20.72
2023-05-05T10:33:34.044Z,20.48
2023-05-05T10:36:06.638Z,20.52
2023-05-05T10:38:37.352Z,20.63
2023-05-05T10:41:04.754Z,21.13
2023-05-05T10:43:32.393Z,21.12
2023-05-05T10:45:59.794Z,21.34
2023-05-05T10:48:57.353Z,21.50
2023-05-05T10:51:39.906Z,21.78
2023-05-05T10:54:24.749Z,21.74
2023-05-05T10:56:51.954Z,21.38
2023-05-05T10:59:40.532Z,21.26
2023-05-05T11:02:26.899Z,21.21
2023-05-05T11:05:15.257Z,21.63
2023-05-05T11:07:43.305Z,20.81
2023-05-05T11:10:12.324Z,20.94
2023-05-05T11:13:03.702Z,21.70
2023-05-05T11:15:30.820Z,20.93
2023-05-05T11:18:08.200Z,21.37
2023-05-05T11:20:43.685Z,21.58
2023-05-05T11:23:10.882Z,20.93
2023-05-05T11:25:38.226Z,21.14
2023-05-05T11:28:16.522Z,21.21
2023-05-05T11:30:55.287Z,21.03
2023-05-05T11:33:38.356Z,21.27
2023-05-05T11:36:09.707Z,21.63
2023-05-05T11:38:55.768Z,21.50
2023-05-05T11:41:35.806Z,21.43
2023-05-05T11:47:01.130Z,21.94
2023-05-05T11:49:31.660Z,21.44
2023-05-05T11:52:03.676Z,21.04
2023-05-05T11:54:31.542Z,20.87
2023-05-05T11:57:07.758Z,21.13
2023-05-05T11:59:37.342Z,21.70
2023-05-05T12:02:04.722Z,22.07
2023-05-05T12:04:32.139Z,22.23
2023-05-05T12:06:59.382Z,22.80
2023-05-05T12:09:26.975Z,22.72
2023-05-05T12:11:54.511Z,22.58
2023-05-05T12:14:22.021Z,22.92
2023-05-05T12:16:56.341Z,22.29
2023-05-05T12:19:23.748Z,22.16
2023-05-05T12:21:50.385Z,22.05
2023-05-05T12:24:17.144Z,22.27
2023-05-05T12:26:43.785Z,22.24
2023-05-05T12:29:10.952Z,22.58
2023-05-05T12:31:42.142Z,22.58
2023-05-05T12:34:10.268Z,22.72
2023-05-05T12:36:37.649Z,22.42
2023-05-05T12:39:05.411Z,22.21
2023-05-05T12:41:33.081Z,22.21
2023-05-05T12:44:03.363Z,22.59
2023-05-05T12:46:31.259Z,22.21
2023-05-05T12:49:05.620Z,22.03
2023-05-05T12:51:36.724Z,22.26
2023-05-05T12:54:12.531Z,22.36
2023-05-05T12:56:47.322Z,22.29
2023-05-05T12:59:23.043Z,22.68
2023-05-05T13:01:50.356Z,23.03
2023-05-05T13:04:19.271Z,22.88
2023-05-05T13:06:47.556Z,22.68
2023-05-05T13:09:27.018Z,22.72
2023-05-05T13:11:54.748Z,22.77
2023-05-05T13:14:21.723Z,22.44
2023-05-05T13:16:48.401Z,22.72
2023-05-05T13:19:17.717Z,22.56
2023-05-05T13:21:44.319Z,22.25
2023-05-05T13:24:21.320Z,22.53
2023-05-05T13:26:53.196Z,22.06
2023-05-05T13:29:19.834Z,22.42
2023-05-05T13:31:46.587Z,22.62
2023-05-05T13:34:13.342Z,22.64
2023-05-05T13:36:39.977Z,22.43
2023-05-05T13:39:06.987Z,22.01
2023-05-05T13:41:33.610Z,22.43
2023-05-05T13:44:32.949Z,22.38
2023-05-05T13:47:02.253Z,22.48
2023-05-05T13:49:28.890Z,22.24
2023-05-05T13:51:56.456Z,22.37
2023-05-05T13:54:23.065Z,22.05
2023-05-05T13:56:49.690Z,21.98
2023-05-05T13:59:16.298Z,22.04
2023-05-05T14:01:42.885Z,22.26
2023-05-05T14:04:09.579Z,22.26
2023-05-05T14:06:36.247Z,21.90
2023-05-05T14:09:05.878Z,22.09
2023-05-05T14:11:32.884Z,22.21
2023-05-05T14:13:59.594Z,21.89
2023-05-05T14:16:26.277Z,21.42
2023-05-05T14:18:52.878Z,21.29
2023-05-05T14:21:19.526Z,21.14
2023-05-05T14:23:46.284Z,21.17
2023-05-05T14:26:12.849Z,21.05
2023-05-05T14:28:39.479Z,20.89
2023-05-05T14:31:06.162Z,20.80
2023-05-05T14:33:33.184Z,20.99
2023-05-05T14:35:59.994Z,21.11
2023-05-05T14:38:26.693Z,21.20
2023-05-05T14:40:53.329Z,21.48
2023-05-05T14:43:20.776Z,21.23
2023-05-05T14:45:47.483Z,21.46
2023-05-05T14:48:14.231Z,21.30
2023-05-05T14:50:42.541Z,21.11
2023-05-05T14:53:09.301Z,21.17
2023-05-05T14:55:36.038Z,21.20
2023-05-05T14:58:02.614Z,21.07
2023-05-05T15:00:29.323Z,21.06
2023-05-05T15:02:56.173Z,21.05
2023-05-05T15:05:22.971Z,21.09
2023-05-05T15:07:49.805Z,21.18
2023-05-05T15:10:17.287Z,21.22
2023-05-05T15:12:45.962Z,21.13
2023-05-05T15:15:12.755Z,21.13
2023-05-05T15:17:43.241Z,21.13
2023-05-05T15:20:20.478Z,21.04
2023-05-05T15:22:48.452Z,20.60
2023-05-05T15:25:16.469Z,20.71
2023-05-05T15:27:43.367Z,20.75
2023-05-05T15:30:11.511Z,20.86
2023-05-05T15:32:38.231Z,20.84
2023-05-05T15:35:05.146Z,20.81
2023-05-05T15:37:31.835Z,20.61
2023-05-05T15:39:58.719Z,20.65
2023-05-05T15:42:25.540Z,20.49
2023-05-05T15:44:52.390Z,20.46
2023-05-05T15:47:19.019Z,20.25
2023-05-05T15:49:45.631Z,19.98
2023-05-05T15:52:12.917Z,20.01
2023-05-05T15:54:39.599Z,20.08
2023-05-05T15:57:06.169Z,19.65
2023-05-05T15:59:32.889Z,19.85
2023-05-05T16:01:59.504Z,19.84
2023-05-05T16:04:26.178Z,19.94
2023-05-05T16:06:53.390Z,19.76
2023-05-05T16:09:20.272Z,19.65
2023-05-05T16:11:47.494Z,19.56
2023-05-05T16:14:14.121Z,19.63
2023-05-05T16:16:41.043Z,19.48
2023-05-05T16:19:07.693Z,19.22
2023-05-05T16:21:34.301Z,19.34
2023-05-05T16:24:01.035Z,19.12
2023-05-05T16:26:27.782Z,19.14
2023-05-05T16:28:54.423Z,19.12
2023-05-05T16:31:21.202Z,18.99
2023-05-05T16:33:47.908Z,18.91
2023-05-05T16:36:14.702Z,18.75
2023-05-05T16:38:41.738Z,18.51
2023-05-05T16:41:08.589Z,18.82
2023-05-05T16:43:37.269Z,18.75
2023-05-05T16:46:04.346Z,18.56
2023-05-05T16:48:43.240Z,18.63
2023-05-05T16:51:10.106Z,18.39
2023-05-05T16:53:36.793Z,18.40
2023-05-05T16:58:41.114Z,18.23
2023-05-05T17:01:07.830Z,18.31
2023-05-05T17:03:34.468Z,18.14
2023-05-05T17:08:49.304Z,18.14
2023-05-05T17:11:15.916Z,18.06
2023-05-05T17:13:42.773Z,17.76
2023-05-05T17:16:09.429Z,17.94
2023-05-05T17:18:37.125Z,17.91
2023-05-05T17:21:04.069Z,17.80
2023-05-05T17:23:30.736Z,17.75
2023-05-05T17:26:12.451Z,17.74
2023-05-05T17:28:39.058Z,17.73
2023-05-05T17:31:05.876Z,17.68
2023-05-05T17:33:32.554Z,17.67
2023-05-05T17:35:59.357Z,17.56
2023-05-05T17:38:25.968Z,17.58
2023-05-05T17:40:52.577Z,17.50
2023-05-05T17:43:19.145Z,17.51
2023-05-05T17:45:46.804Z,17.46
2023-05-05T17:48:13.744Z,17.32
2023-05-05T17:50:43.194Z,17.40
2023-05-05T17:53:11.210Z,17.35
2023-05-05T17:55:38.020Z,17.38
2023-05-05T17:58:04.700Z,17.31
2023-05-05T18:00:31.464Z,17.37
2023-05-05T18:02:58.384Z,17.19
2023-05-05T18:05:25.129Z,17.21
2023-05-05T18:07:51.777Z,16.94
2023-05-05T18:10:19.315Z,17.08
2023-05-05T18:12:46.084Z,17.01
2023-05-05T18:15:13.146Z,16.91
2023-05-05T18:17:40.473Z,16.81
2023-05-05T18:20:07.645Z,16.81
2023-05-05T18:22:34.693Z,16.89
2023-05-05T18:25:01.477Z,16.72
2023-05-05T18:27:29.190Z,16.66
2023-05-05T18:29:55.785Z,16.66
2023-05-05T18:32:22.522Z,16.58
2023-05-05T18:34:49.417Z,16.43
2023-05-05T18:37:16.034Z,16.35
2023-05-05T18:39:44.043Z,16.28
2023-05-05T18:42:13.080Z,16.32
2023-05-05T18:44:40.049Z,16.19
2023-05-05T18:47:07.961Z,16.13
2023-05-05T18:49:37.564Z,16.00
2023-05-05T18:52:04.506Z,15.96
2023-05-05T18:54:31.346Z,16.02
2023-05-05T18:56:59.425Z,15.79
2023-05-05T18:59:26.397Z,15.74
2023-05-05T19:01:53.076Z,15.78
2023-05-05T19:04:30.646Z,15.73
2023-05-05T19:06:58.607Z,15.63
2023-05-05T19:09:25.497Z,15.23
2023-05-05T19:11:52.107Z,14.94
2023-05-05T19:14:18.764Z,14.85
2023-05-05T19:16:45.759Z,14.68
2023-05-05T19:19:12.638Z,14.76
2023-05-05T19:21:39.473Z,14.45
2023-05-05T19:24:09.994Z,14.52
2023-05-05T19:26:36.726Z,14.58
2023-05-05T19:29:03.460Z,14.76
2023-05-05T19:31:31.394Z,14.80
2023-05-05T19:34:00.977Z,14.67
2023-05-05T19:36:28.337Z,14.69
2023-05-05T19:38:55.887Z,14.74
2023-05-05T19:41:22.665Z,14.85
2023-05-05T19:43:50.055Z,14.79
2023-05-05T19:46:19.717Z,14.67
2023-05-05T19:48:46.551Z,14.78
2023-05-05T19:51:13.423Z,14.73
2023-05-05T19:53:42.995Z,14.60
2023-05-05T19:56:10.102Z,14.70
2023-05-05T19:58:55.372Z,14.74
2023-05-05T20:01:22.324Z,14.72
2023-05-05T20:03:49.322Z,14.60
2023-05-05T20:06:19.082Z,14.61
2023-05-05T20:08:45.715Z,14.41
2023-05-05T20:11:17.252Z,14.52
2023-05-05T20:13:44.060Z,14.58
2023-05-05T20:16:10.979Z,14.46
2023-05-05T20:18:37.653Z,14.38
2023-05-05T20:21:04.719Z,14.35
2023-05-05T20:23:32.078Z,14.33
2023-05-05T20:25:59.198Z,14.29
2023-05-05T20:28:26.147Z,14.41
2023-05-05T20:30:52.771Z,14.41
2023-05-05T20:36:01.355Z,14.24
2023-05-05T20:38:27.922Z,14.23
2023-05-05T20:40:54.646Z,14.23
2023-05-05T20:43:21.273Z,14.20
2023-05-05T20:45:47.958Z,13.97
2023-05-05T20:48:14.879Z,14.08
2023-05-05T20:50:42.160Z,14.14
2023-05-05T20:53:11.012Z,13.92
2023-05-05T20:55:37.681Z,13.95
2023-05-05T20:58:06.906Z,14.04
2023-05-05T21:00:34.057Z,13.86
2023-05-05T21:03:02.787Z,13.85
2023-05-05T21:05:30.357Z,13.70
2023-05-05T21:07:58.516Z,13.72
2023-05-05T21:10:27.762Z,13.44
2023-05-05T21:12:54.817Z,13.48
2023-05-05T21:15:21.603Z,13.56
2023-05-05T21:17:48.520Z,13.58
2023-05-05T21:20:16.442Z,13.53
2023-05-05T21:22:43.278Z,13.36
2023-05-05T21:25:19.279Z,13.14
2023-05-05T21:27:47.151Z,12.92
2023-05-05T21:30:14.876Z,12.67
2023-05-05T21:32:42.264Z,12.80
2023-05-05T21:35:09.431Z,12.53
2023-05-05T21:37:39.665Z,12.48
2023-05-05T21:40:13.436Z,12.20
2023-05-05T21:42:41.362Z,12.33
2023-05-05T21:45:08.726Z,12.21
2023-05-05T21:47:35.587Z,12.27
2023-05-05T21:50:02.321Z,12.17
2023-05-05T21:52:29.059Z,12.27
2023-05-05T21:54:56.065Z,12.27
2023-05-05T21:57:22.674Z,12.20
2023-05-05T21:59:49.552Z,12.03
2023-05-05T22:02:16.138Z,11.89
2023-05-05T22:04:42.937Z,11.96
2023-05-05T22:07:09.543Z,11.90
2023-05-05T22:09:36.199Z,11.69
2023-05-05T22:12:02.952Z,11.69
2023-05-05T22:14:29.748Z,11.63
2023-05-05T22:16:56.493Z,11.55
2023-05-05T22:19:23.193Z,11.40
2023-05-05T22:21:49.947Z,11.46
2023-05-05T22:24:16.864Z,11.39
2023-05-05T22:26:43.695Z,11.29
2023-05-05T22:29:11.416Z,11.28
2023-05-05T22:31:38.578Z,11.24
2023-05-05T22:34:05.435Z,11.24
2023-05-05T22:36:32.151Z,11.18
2023-05-05T22:38:59.064Z,11.20
2023-05-05T22:41:25.943Z,11.11
2023-05-05T22:43:52.692Z,11.05
2023-05-05T22:46:19.328Z,11.14
2023-05-05T22:48:46.712Z,10.99
2023-05-05T22:51:13.510Z,10.93
2023-05-05T22:53:40.338Z,10.97
2023-05-05T22:56:07.224Z,10.94
2023-05-05T22:58:34.459Z,10.90
2023-05-05T23:01:01.143Z,10.87
2023-05-05T23:03:27.758Z,10.80
2023-05-05T23:05:54.478Z,10.61
2023-05-05T23:08:21.607Z,10.52
2023-05-05T23:10:50.748Z,10.58
2023-05-05T23:13:17.593Z,10.49
2023-05-05T23:15:44.804Z,10.48
2023-05-05T23:18:11.612Z,10.39
2023-05-05T23:20:38.488Z,10.53
2023-05-05T23:23:05.254Z,10.23
2023-05-05T23:25:49.454Z,10.20
2023-05-05T23:28:16.310Z,10.10
2023-05-05T23:30:43.289Z,10.03
2023-05-05T23:33:10.056Z,9.96
2023-05-05T23:35:39.641Z,9.90
2023-05-05T23:38:06.920Z,9.87
2023-05-05T23:40:34.470Z,9.89
2023-05-05T23:43:01.863Z,9.85
2023-05-05T23:45:28.880Z,9.85
2023-05-05T23:47:56.135Z,9.81
2023-05-05T23:50:22.956Z,9.68
2023-05-05T23:52:49.773Z,9.80
2023-05-05T23:55:16.478Z,9.84
2023-05-05T23:57:43.478Z,9.80
